sensor_id;sensor_type;location;lat;lon;timestamp;temperature;humidity
74364;DHT22;62797;49.740;10.154;2024-02-28T00:01:38;6.70;56.60
74364;DHT22;62797;49.740;10.154;2024-02-28T00:04:37;6.60;57.30
74364;DHT22;62797;49.740;10.154;2024-02-28T00:07:16;6.60;57.40
74364;DHT22;62797;49.740;10.154;2024-02-28T00:10:15;6.60;57.20
74364;DHT22;62797;49.740;10.154;2024-02-28T00:12:57;6.60;57.40
74364;DHT22;62797;49.740;10.154;2024-02-28T00:15:36;6.50;57.70
74364;DHT22;62797;49.740;10.154;2024-02-28T00:18:16;6.50;57.40
74364;DHT22;62797;49.740;10.154;2024-02-28T00:20:48;6.50;57.90
74364;DHT22;62797;49.740;10.154;2024-02-28T00:23:34;6.50;57.60
74364;DHT22;62797;49.740;10.154;2024-02-28T00:26:16;6.50;57.30
74364;DHT22;62797;49.740;10.154;2024-02-28T00:28:55;6.50;57.00
74364;DHT22;62797;49.740;10.154;2024-02-28T00:31:34;6.50;57.80
74364;DHT22;62797;49.740;10.154;2024-02-28T00:34:16;6.40;57.80
74364;DHT22;62797;49.740;10.154;2024-02-28T00:36:48;6.40;57.60
74364;DHT22;62797;49.740;10.154;2024-02-28T00:39:21;6.40;57.60
74364;DHT22;62797;49.740;10.154;2024-02-28T00:42:06;6.30;57.50
74364;DHT22;62797;49.740;10.154;2024-02-28T00:44:45;6.30;57.90
74364;DHT22;62797;49.740;10.154;2024-02-28T00:47:19;6.40;58.20
74364;DHT22;62797;49.740;10.154;2024-02-28T00:49:51;6.30;58.80
74364;DHT22;62797;49.740;10.154;2024-02-28T00:52:43;6.30;59.10
74364;DHT22;62797;49.740;10.154;2024-02-28T00:55:25;6.30;58.60
74364;DHT22;62797;49.740;10.154;2024-02-28T00:58:06;6.30;58.10
74364;DHT22;62797;49.740;10.154;2024-02-28T01:00:41;6.30;58.10
74364;DHT22;62797;49.740;10.154;2024-02-28T01:03:19;6.30;58.50
74364;DHT22;62797;49.740;10.154;2024-02-28T01:05:57;6.30;58.70
74364;DHT22;62797;49.740;10.154;2024-02-28T01:08:37;6.40;59.30
74364;DHT22;62797;49.740;10.154;2024-02-28T01:11:15;6.40;58.60
74364;DHT22;62797;49.740;10.154;2024-02-28T01:13:57;6.40;58.60
74364;DHT22;62797;49.740;10.154;2024-02-28T01:16:36;6.50;58.60
74364;DHT22;62797;49.740;10.154;2024-02-28T01:19:08;6.40;58.00
74364;DHT22;62797;49.740;10.154;2024-02-28T01:21:59;6.40;57.50
74364;DHT22;62797;49.740;10.154;2024-02-28T01:25:11;6.50;57.60
74364;DHT22;62797;49.740;10.154;2024-02-28T01:27:45;6.50;57.70
74364;DHT22;62797;49.740;10.154;2024-02-28T01:30:26;6.50;57.80
74364;DHT22;62797;49.740;10.154;2024-02-28T01:32:59;6.40;57.80
74364;DHT22;62797;49.740;10.154;2024-02-28T01:39:06;6.40;58.30
74364;DHT22;62797;49.740;10.154;2024-02-28T01:41:53;6.40;58.50
74364;DHT22;62797;49.740;10.154;2024-02-28T01:44:45;6.40;58.50
74364;DHT22;62797;49.740;10.154;2024-02-28T01:47:24;6.30;58.30
74364;DHT22;62797;49.740;10.154;2024-02-28T01:50:20;6.30;58.20
74364;DHT22;62797;49.740;10.154;2024-02-28T01:52:59;6.30;58.30
74364;DHT22;62797;49.740;10.154;2024-02-28T01:55:35;6.30;58.00
74364;DHT22;62797;49.740;10.154;2024-02-28T01:58:40;6.30;58.40
74364;DHT22;62797;49.740;10.154;2024-02-28T02:01:39;6.30;58.10
74364;DHT22;62797;49.740;10.154;2024-02-28T02:04:24;6.30;57.80
74364;DHT22;62797;49.740;10.154;2024-02-28T02:07:03;6.30;57.90
74364;DHT22;62797;49.740;10.154;2024-02-28T02:09:47;6.20;57.80
74364;DHT22;62797;49.740;10.154;2024-02-28T02:12:26;6.20;58.00
74364;DHT22;62797;49.740;10.154;2024-02-28T02:15:05;6.20;58.00
74364;DHT22;62797;49.740;10.154;2024-02-28T02:17:39;6.30;57.70
74364;DHT22;62797;49.740;10.154;2024-02-28T02:20:34;6.30;57.40
74364;DHT22;62797;49.740;10.154;2024-02-28T02:23:14;6.40;57.00
74364;DHT22;62797;49.740;10.154;2024-02-28T02:25:59;6.30;57.50
74364;DHT22;62797;49.740;10.154;2024-02-28T02:28:40;6.40;57.00
74364;DHT22;62797;49.740;10.154;2024-02-28T02:31:13;6.30;57.60
74364;DHT22;62797;49.740;10.154;2024-02-28T02:34:18;6.30;57.20
74364;DHT22;62797;49.740;10.154;2024-02-28T02:37:07;6.30;57.00
74364;DHT22;62797;49.740;10.154;2024-02-28T02:39:48;6.30;57.50
74364;DHT22;62797;49.740;10.154;2024-02-28T02:42:25;6.30;57.50
74364;DHT22;62797;49.740;10.154;2024-02-28T02:45:06;6.30;57.70
74364;DHT22;62797;49.740;10.154;2024-02-28T02:48:04;6.30;57.40
74364;DHT22;62797;49.740;10.154;2024-02-28T02:51:01;6.30;57.50
74364;DHT22;62797;49.740;10.154;2024-02-28T02:56:57;6.30;57.60
74364;DHT22;62797;49.740;10.154;2024-02-28T02:59:45;6.30;57.70
74364;DHT22;62797;49.740;10.154;2024-02-28T03:02:36;6.30;57.20
74364;DHT22;62797;49.740;10.154;2024-02-28T03:05:25;6.30;57.80
74364;DHT22;62797;49.740;10.154;2024-02-28T03:08:09;6.20;58.00
74364;DHT22;62797;49.740;10.154;2024-02-28T03:11:07;6.20;57.50
74364;DHT22;62797;49.740;10.154;2024-02-28T03:13:48;6.20;57.40
74364;DHT22;62797;49.740;10.154;2024-02-28T03:16:27;6.20;57.90
74364;DHT22;62797;49.740;10.154;2024-02-28T03:19:25;6.20;57.70
74364;DHT22;62797;49.740;10.154;2024-02-28T03:22:07;6.10;58.10
74364;DHT22;62797;49.740;10.154;2024-02-28T03:24:43;6.10;58.20
74364;DHT22;62797;49.740;10.154;2024-02-28T03:27:25;6.10;58.30
74364;DHT22;62797;49.740;10.154;2024-02-28T03:30:06;6.10;58.10
74364;DHT22;62797;49.740;10.154;2024-02-28T03:32:39;6.10;58.10
74364;DHT22;62797;49.740;10.154;2024-02-28T03:35:16;6.10;57.60
74364;DHT22;62797;49.740;10.154;2024-02-28T03:38:08;6.20;57.00
74364;DHT22;62797;49.740;10.154;2024-02-28T03:40:40;6.20;56.80
74364;DHT22;62797;49.740;10.154;2024-02-28T03:43:33;6.20;57.30
74364;DHT22;62797;49.740;10.154;2024-02-28T03:46:18;6.10;57.40
74364;DHT22;62797;49.740;10.154;2024-02-28T03:49:08;6.20;57.40
74364;DHT22;62797;49.740;10.154;2024-02-28T03:51:48;6.20;57.40
74364;DHT22;62797;49.740;10.154;2024-02-28T03:54:27;6.10;57.40
74364;DHT22;62797;49.740;10.154;2024-02-28T03:57:04;6.10;57.60
74364;DHT22;62797;49.740;10.154;2024-02-28T03:59:40;6.10;57.00
74364;DHT22;62797;49.740;10.154;2024-02-28T04:02:24;6.10;57.10
74364;DHT22;62797;49.740;10.154;2024-02-28T04:05:06;6.20;56.90
74364;DHT22;62797;49.740;10.154;2024-02-28T04:07:48;6.10;57.20
74364;DHT22;62797;49.740;10.154;2024-02-28T04:10:32;6.10;57.30
74364;DHT22;62797;49.740;10.154;2024-02-28T04:13:08;6.10;57.40
74364;DHT22;62797;49.740;10.154;2024-02-28T04:16:30;6.20;57.30
74364;DHT22;62797;49.740;10.154;2024-02-28T04:19:36;6.10;56.80
74364;DHT22;62797;49.740;10.154;2024-02-28T04:22:28;6.10;56.90
74364;DHT22;62797;49.740;10.154;2024-02-28T04:25:20;6.20;56.80
74364;DHT22;62797;49.740;10.154;2024-02-28T04:28:11;6.10;56.80
74364;DHT22;62797;49.740;10.154;2024-02-28T04:30:45;6.20;56.80
74364;DHT22;62797;49.740;10.154;2024-02-28T04:33:28;6.00;57.00
74364;DHT22;62797;49.740;10.154;2024-02-28T04:39:27;6.10;57.20
74364;DHT22;62797;49.740;10.154;2024-02-28T04:42:20;6.10;57.30
74364;DHT22;62797;49.740;10.154;2024-02-28T04:45:00;6.10;56.90
74364;DHT22;62797;49.740;10.154;2024-02-28T04:47:43;6.10;57.20
74364;DHT22;62797;49.740;10.154;2024-02-28T04:50:27;6.10;56.80
74364;DHT22;62797;49.740;10.154;2024-02-28T04:53:08;6.10;56.80
74364;DHT22;62797;49.740;10.154;2024-02-28T04:55:43;6.10;56.80
74364;DHT22;62797;49.740;10.154;2024-02-28T04:58:17;6.10;56.80
74364;DHT22;62797;49.740;10.154;2024-02-28T05:01:04;6.10;56.60
74364;DHT22;62797;49.740;10.154;2024-02-28T05:03:45;6.20;56.90
74364;DHT22;62797;49.740;10.154;2024-02-28T05:06:24;6.20;56.80
74364;DHT22;62797;49.740;10.154;2024-02-28T05:09:02;6.20;56.30
74364;DHT22;62797;49.740;10.154;2024-02-28T05:11:38;6.10;56.50
74364;DHT22;62797;49.740;10.154;2024-02-28T05:14:26;6.10;56.80
74364;DHT22;62797;49.740;10.154;2024-02-28T05:16:58;6.10;56.70
74364;DHT22;62797;49.740;10.154;2024-02-28T05:19:31;6.10;57.10
74364;DHT22;62797;49.740;10.154;2024-02-28T05:22:28;6.10;57.30
74364;DHT22;62797;49.740;10.154;2024-02-28T05:25:06;6.10;56.90
74364;DHT22;62797;49.740;10.154;2024-02-28T05:27:47;6.10;56.80
74364;DHT22;62797;49.740;10.154;2024-02-28T05:30:23;6.20;56.20
74364;DHT22;62797;49.740;10.154;2024-02-28T05:32:58;6.10;57.70
74364;DHT22;62797;49.740;10.154;2024-02-28T05:35:40;6.10;57.70
74364;DHT22;62797;49.740;10.154;2024-02-28T05:38:28;6.10;57.60
74364;DHT22;62797;49.740;10.154;2024-02-28T05:41:05;6.10;57.00
74364;DHT22;62797;49.740;10.154;2024-02-28T05:43:44;6.10;57.50
74364;DHT22;62797;49.740;10.154;2024-02-28T05:46:26;6.10;57.40
74364;DHT22;62797;49.740;10.154;2024-02-28T05:49:10;6.10;56.80
74364;DHT22;62797;49.740;10.154;2024-02-28T05:51:55;6.10;56.90
74364;DHT22;62797;49.740;10.154;2024-02-28T05:54:29;6.10;56.90
74364;DHT22;62797;49.740;10.154;2024-02-28T05:57:05;6.10;57.10
74364;DHT22;62797;49.740;10.154;2024-02-28T05:59:43;6.00;57.90
74364;DHT22;62797;49.740;10.154;2024-02-28T06:02:16;6.00;57.80
74364;DHT22;62797;49.740;10.154;2024-02-28T06:05:12;6.00;58.00
74364;DHT22;62797;49.740;10.154;2024-02-28T06:08:06;6.10;57.60
74364;DHT22;62797;49.740;10.154;2024-02-28T06:10:43;6.10;57.70
74364;DHT22;62797;49.740;10.154;2024-02-28T06:13:28;6.10;58.40
74364;DHT22;62797;49.740;10.154;2024-02-28T06:16:28;6.00;59.10
74364;DHT22;62797;49.740;10.154;2024-02-28T06:19:10;6.00;58.70
74364;DHT22;62797;49.740;10.154;2024-02-28T06:22:06;6.00;58.40
74364;DHT22;62797;49.740;10.154;2024-02-28T06:24:39;6.00;58.60
74364;DHT22;62797;49.740;10.154;2024-02-28T06:27:16;5.80;59.20
74364;DHT22;62797;49.740;10.154;2024-02-28T06:30:08;5.80;59.80
74364;DHT22;62797;49.740;10.154;2024-02-28T06:33:03;5.90;59.80
74364;DHT22;62797;49.740;10.154;2024-02-28T06:35:54;5.90;59.10
74364;DHT22;62797;49.740;10.154;2024-02-28T06:38:33;5.90;59.50
74364;DHT22;62797;49.740;10.154;2024-02-28T06:41:09;6.00;59.50
74364;DHT22;62797;49.740;10.154;2024-02-28T06:43:50;5.90;59.20
74364;DHT22;62797;49.740;10.154;2024-02-28T06:47:03;6.00;60.70
74364;DHT22;62797;49.740;10.154;2024-02-28T06:49:45;6.00;59.40
74364;DHT22;62797;49.740;10.154;2024-02-28T06:52:27;6.10;59.30
74364;DHT22;62797;49.740;10.154;2024-02-28T06:55:08;6.10;59.50
74364;DHT22;62797;49.740;10.154;2024-02-28T06:57:46;6.20;59.90
74364;DHT22;62797;49.740;10.154;2024-02-28T07:00:28;6.20;59.20
74364;DHT22;62797;49.740;10.154;2024-02-28T07:03:29;6.10;57.70
74364;DHT22;62797;49.740;10.154;2024-02-28T07:06:26;6.10;58.60
74364;DHT22;62797;49.740;10.154;2024-02-28T07:09:27;6.10;58.80
74364;DHT22;62797;49.740;10.154;2024-02-28T07:12:26;6.10;58.80
74364;DHT22;62797;49.740;10.154;2024-02-28T07:15:06;6.10;58.70
74364;DHT22;62797;49.740;10.154;2024-02-28T07:17:41;6.00;58.30
74364;DHT22;62797;49.740;10.154;2024-02-28T07:20:25;6.00;58.90
74364;DHT22;62797;49.740;10.154;2024-02-28T07:23:05;5.70;59.10
74364;DHT22;62797;49.740;10.154;2024-02-28T07:25:46;5.60;60.30
74364;DHT22;62797;49.740;10.154;2024-02-28T07:28:24;5.60;60.50
74364;DHT22;62797;49.740;10.154;2024-02-28T07:31:05;5.80;60.70
74364;DHT22;62797;49.740;10.154;2024-02-28T07:33:47;5.90;60.40
74364;DHT22;62797;49.740;10.154;2024-02-28T07:36:24;6.00;60.00
74364;DHT22;62797;49.740;10.154;2024-02-28T07:39:11;6.10;59.20
74364;DHT22;62797;49.740;10.154;2024-02-28T07:41:48;6.20;59.20
74364;DHT22;62797;49.740;10.154;2024-02-28T07:44:28;6.30;59.40
74364;DHT22;62797;49.740;10.154;2024-02-28T07:47:06;6.20;57.40
74364;DHT22;62797;49.740;10.154;2024-02-28T07:49:40;6.20;57.20
74364;DHT22;62797;49.740;10.154;2024-02-28T07:52:15;6.00;57.10
74364;DHT22;62797;49.740;10.154;2024-02-28T07:55:11;6.10;57.10
74364;DHT22;62797;49.740;10.154;2024-02-28T07:57:56;6.10;55.90
74364;DHT22;62797;49.740;10.154;2024-02-28T08:00:40;6.20;56.20
74364;DHT22;62797;49.740;10.154;2024-02-28T08:03:28;6.30;56.20
74364;DHT22;62797;49.740;10.154;2024-02-28T08:06:01;6.40;56.90
74364;DHT22;62797;49.740;10.154;2024-02-28T08:08:46;6.50;56.50
74364;DHT22;62797;49.740;10.154;2024-02-28T08:11:19;6.50;55.20
74364;DHT22;62797;49.740;10.154;2024-02-28T08:13:52;6.50;55.70
74364;DHT22;62797;49.740;10.154;2024-02-28T08:16:34;6.50;55.70
74364;DHT22;62797;49.740;10.154;2024-02-28T08:19:19;6.60;54.90
74364;DHT22;62797;49.740;10.154;2024-02-28T08:21:55;6.60;53.20
74364;DHT22;62797;49.740;10.154;2024-02-28T08:24:34;6.50;53.80
74364;DHT22;62797;49.740;10.154;2024-02-28T08:27:22;6.40;53.90
74364;DHT22;62797;49.740;10.154;2024-02-28T08:29:55;6.50;54.30
74364;DHT22;62797;49.740;10.154;2024-02-28T08:32:28;6.60;53.40
74364;DHT22;62797;49.740;10.154;2024-02-28T08:35:09;6.70;53.60
74364;DHT22;62797;49.740;10.154;2024-02-28T08:38:27;6.60;52.40
74364;DHT22;62797;49.740;10.154;2024-02-28T08:41:12;6.70;53.00
74364;DHT22;62797;49.740;10.154;2024-02-28T08:43:52;6.80;51.40
74364;DHT22;62797;49.740;10.154;2024-02-28T08:46:42;6.80;52.20
74364;DHT22;62797;49.740;10.154;2024-02-28T08:49:35;6.90;52.30
74364;DHT22;62797;49.740;10.154;2024-02-28T08:52:08;7.00;51.90
74364;DHT22;62797;49.740;10.154;2024-02-28T08:55:09;7.10;52.60
74364;DHT22;62797;49.740;10.154;2024-02-28T08:57:42;7.20;51.40
74364;DHT22;62797;49.740;10.154;2024-02-28T09:00:18;7.40;50.90
74364;DHT22;62797;49.740;10.154;2024-02-28T09:03:13;7.60;50.10
74364;DHT22;62797;49.740;10.154;2024-02-28T09:05:52;7.50;48.20
74364;DHT22;62797;49.740;10.154;2024-02-28T09:08:34;7.50;48.60
74364;DHT22;62797;49.740;10.154;2024-02-28T09:11:13;7.50;49.90
74364;DHT22;62797;49.740;10.154;2024-02-28T09:14:14;7.70;50.40
74364;DHT22;62797;49.740;10.154;2024-02-28T09:16:54;8.00;48.70
74364;DHT22;62797;49.740;10.154;2024-02-28T09:19:55;7.90;45.30
74364;DHT22;62797;49.740;10.154;2024-02-28T09:22:49;7.80;47.00
74364;DHT22;62797;49.740;10.154;2024-02-28T09:25:24;8.00;47.40
74364;DHT22;62797;49.740;10.154;2024-02-28T09:27:58;8.10;46.40
74364;DHT22;62797;49.740;10.154;2024-02-28T09:30:33;8.00;44.60
74364;DHT22;62797;49.740;10.154;2024-02-28T09:33:14;8.00;44.70
74364;DHT22;62797;49.740;10.154;2024-02-28T09:35:54;7.90;46.00
74364;DHT22;62797;49.740;10.154;2024-02-28T09:38:27;7.90;47.20
74364;DHT22;62797;49.740;10.154;2024-02-28T09:41:14;8.20;47.00
74364;DHT22;62797;49.740;10.154;2024-02-28T09:44:09;8.50;48.00
74364;DHT22;62797;49.740;10.154;2024-02-28T09:46:57;8.50;44.30
74364;DHT22;62797;49.740;10.154;2024-02-28T09:49:42;8.40;45.50
74364;DHT22;62797;49.740;10.154;2024-02-28T09:52:27;8.60;43.70
74364;DHT22;62797;49.740;10.154;2024-02-28T09:55:13;8.60;43.80
74364;DHT22;62797;49.740;10.154;2024-02-28T09:57:50;8.60;44.70
74364;DHT22;62797;49.740;10.154;2024-02-28T10:00:39;8.70;43.70
74364;DHT22;62797;49.740;10.154;2024-02-28T10:03:18;8.80;43.60
74364;DHT22;62797;49.740;10.154;2024-02-28T10:05:58;8.80;44.10
74364;DHT22;62797;49.740;10.154;2024-02-28T10:08:46;8.90;44.30
74364;DHT22;62797;49.740;10.154;2024-02-28T10:11:29;8.80;41.30
74364;DHT22;62797;49.740;10.154;2024-02-28T10:14:29;8.30;41.20
74364;DHT22;62797;49.740;10.154;2024-02-28T10:17:02;8.20;41.20
74364;DHT22;62797;49.740;10.154;2024-02-28T10:19:35;8.00;43.30
74364;DHT22;62797;49.740;10.154;2024-02-28T10:22:17;8.00;43.60
74364;DHT22;62797;49.740;10.154;2024-02-28T10:25:00;7.70;43.20
74364;DHT22;62797;49.740;10.154;2024-02-28T10:27:36;7.60;44.90
74364;DHT22;62797;49.740;10.154;2024-02-28T10:30:15;7.70;45.20
74364;DHT22;62797;49.740;10.154;2024-02-28T10:33:18;7.70;44.90
74364;DHT22;62797;49.740;10.154;2024-02-28T10:35:54;7.70;43.90
74364;DHT22;62797;49.740;10.154;2024-02-28T10:38:39;7.70;43.70
74364;DHT22;62797;49.740;10.154;2024-02-28T10:41:17;7.70;43.70
74364;DHT22;62797;49.740;10.154;2024-02-28T10:43:54;7.70;44.00
74364;DHT22;62797;49.740;10.154;2024-02-28T10:46:35;7.70;44.20
74364;DHT22;62797;49.740;10.154;2024-02-28T10:49:16;7.70;44.50
74364;DHT22;62797;49.740;10.154;2024-02-28T10:51:50;7.60;44.90
74364;DHT22;62797;49.740;10.154;2024-02-28T10:54:36;7.70;46.70
74364;DHT22;62797;49.740;10.154;2024-02-28T10:57:36;8.00;46.70
74364;DHT22;62797;49.740;10.154;2024-02-28T11:00:14;8.40;44.00
74364;DHT22;62797;49.740;10.154;2024-02-28T11:02:58;8.60;43.00
74364;DHT22;62797;49.740;10.154;2024-02-28T11:05:51;8.70;44.80
74364;DHT22;62797;49.740;10.154;2024-02-28T11:08:36;8.90;43.10
74364;DHT22;62797;49.740;10.154;2024-02-28T11:11:19;9.20;39.70
74364;DHT22;62797;49.740;10.154;2024-02-28T11:14:18;9.30;39.20
74364;DHT22;62797;49.740;10.154;2024-02-28T11:17:07;9.50;38.00
74364;DHT22;62797;49.740;10.154;2024-02-28T11:19:49;9.60;39.10
74364;DHT22;62797;49.740;10.154;2024-02-28T11:22:40;10.00;40.50
74364;DHT22;62797;49.740;10.154;2024-02-28T11:25:14;10.50;38.40
74364;DHT22;62797;49.740;10.154;2024-02-28T11:27:51;10.70;32.60
74364;DHT22;62797;49.740;10.154;2024-02-28T11:30:40;10.90;33.30
74364;DHT22;62797;49.740;10.154;2024-02-28T11:33:38;11.00;29.80
74364;DHT22;62797;49.740;10.154;2024-02-28T11:36:14;10.50;30.40
74364;DHT22;62797;49.740;10.154;2024-02-28T11:38:49;10.30;31.40
74364;DHT22;62797;49.740;10.154;2024-02-28T11:41:43;10.00;31.20
74364;DHT22;62797;49.740;10.154;2024-02-28T11:44:28;9.90;32.60
74364;DHT22;62797;49.740;10.154;2024-02-28T11:47:13;9.70;33.50
74364;DHT22;62797;49.740;10.154;2024-02-28T11:49:52;9.60;35.30
74364;DHT22;62797;49.740;10.154;2024-02-28T11:52:36;10.10;35.10
74364;DHT22;62797;49.740;10.154;2024-02-28T11:55:16;10.10;32.60
74364;DHT22;62797;49.740;10.154;2024-02-28T11:58:09;10.10;32.20
74364;DHT22;62797;49.740;10.154;2024-02-28T12:01:04;9.80;33.00
74364;DHT22;62797;49.740;10.154;2024-02-28T12:04:01;10.10;35.30
74364;DHT22;62797;49.740;10.154;2024-02-28T12:07:33;10.70;34.60
74364;DHT22;62797;49.740;10.154;2024-02-28T12:10:25;11.40;29.40
74364;DHT22;62797;49.740;10.154;2024-02-28T12:13:00;12.00;29.80
74364;DHT22;62797;49.740;10.154;2024-02-28T12:15:39;12.20;27.90
74364;DHT22;62797;49.740;10.154;2024-02-28T12:18:18;12.40;27.90
74364;DHT22;62797;49.740;10.154;2024-02-28T12:21:00;12.80;26.10
74364;DHT22;62797;49.740;10.154;2024-02-28T12:23:39;12.70;23.70
74364;DHT22;62797;49.740;10.154;2024-02-28T12:26:12;12.50;24.40
74364;DHT22;62797;49.740;10.154;2024-02-28T12:29:00;12.70;26.40
74364;DHT22;62797;49.740;10.154;2024-02-28T12:31:37;12.90;23.20
74364;DHT22;62797;49.740;10.154;2024-02-28T12:34:13;13.20;23.80
74364;DHT22;62797;49.740;10.154;2024-02-28T12:36:54;13.60;22.70
74364;DHT22;62797;49.740;10.154;2024-02-28T12:39:38;13.80;21.80
74364;DHT22;62797;49.740;10.154;2024-02-28T12:42:13;14.20;21.80
74364;DHT22;62797;49.740;10.154;2024-02-28T12:44:54;14.50;21.60
74364;DHT22;62797;49.740;10.154;2024-02-28T12:48:10;14.80;20.70
74364;DHT22;62797;49.740;10.154;2024-02-28T12:50:57;14.60;20.40
74364;DHT22;62797;49.740;10.154;2024-02-28T12:53:33;14.60;21.20
74364;DHT22;62797;49.740;10.154;2024-02-28T12:56:12;15.00;19.70
74364;DHT22;62797;49.740;10.154;2024-02-28T12:58:56;15.30;20.30
74364;DHT22;62797;49.740;10.154;2024-02-28T13:01:35;15.90;20.00
74364;DHT22;62797;49.740;10.154;2024-02-28T13:04:09;16.40;18.20
74364;DHT22;62797;49.740;10.154;2024-02-28T13:06:53;16.40;17.70
74364;DHT22;62797;49.740;10.154;2024-02-28T13:09:30;16.50;16.60
74364;DHT22;62797;49.740;10.154;2024-02-28T13:12:17;16.30;13.60
74364;DHT22;62797;49.740;10.154;2024-02-28T13:15:02;15.80;16.00
74364;DHT22;62797;49.740;10.154;2024-02-28T13:17:37;16.00;15.20
74364;DHT22;62797;49.740;10.154;2024-02-28T13:20:12;15.50;16.80
74364;DHT22;62797;49.740;10.154;2024-02-28T13:22:44;15.90;15.60
74364;DHT22;62797;49.740;10.154;2024-02-28T13:25:26;15.80;16.70
74364;DHT22;62797;49.740;10.154;2024-02-28T13:27:58;16.10;15.80
74364;DHT22;62797;49.740;10.154;2024-02-28T13:30:30;16.20;13.90
74364;DHT22;62797;49.740;10.154;2024-02-28T13:33:16;16.20;14.60
74364;DHT22;62797;49.740;10.154;2024-02-28T13:35:57;16.20;14.80
74364;DHT22;62797;49.740;10.154;2024-02-28T13:38:53;15.90;15.40
74364;DHT22;62797;49.740;10.154;2024-02-28T13:41:30;15.90;14.00
74364;DHT22;62797;49.740;10.154;2024-02-28T13:44:11;15.30;16.40
74364;DHT22;62797;49.740;10.154;2024-02-28T13:46:54;16.10;15.60
74364;DHT22;62797;49.740;10.154;2024-02-28T13:49:40;17.10;13.60
74364;DHT22;62797;49.740;10.154;2024-02-28T13:52:21;17.50;14.20
74364;DHT22;62797;49.740;10.154;2024-02-28T13:55:14;17.50;13.30
74364;DHT22;62797;49.740;10.154;2024-02-28T13:57:59;17.80;11.50
74364;DHT22;62797;49.740;10.154;2024-02-28T14:01:01;17.90;11.70
74364;DHT22;62797;49.740;10.154;2024-02-28T14:03:41;17.90;11.40
74364;DHT22;62797;49.740;10.154;2024-02-28T14:06:13;18.00;10.30
74364;DHT22;62797;49.740;10.154;2024-02-28T14:08:55;17.70;9.30
74364;DHT22;62797;49.740;10.154;2024-02-28T14:11:36;17.40;11.60
74364;DHT22;62797;49.740;10.154;2024-02-28T14:14:17;17.50;9.80
74364;DHT22;62797;49.740;10.154;2024-02-28T14:16:55;17.50;10.70
74364;DHT22;62797;49.740;10.154;2024-02-28T14:19:40;17.70;11.00
74364;DHT22;62797;49.740;10.154;2024-02-28T14:22:24;17.60;11.00
74364;DHT22;62797;49.740;10.154;2024-02-28T14:25:04;17.30;10.90
74364;DHT22;62797;49.740;10.154;2024-02-28T14:27:56;17.40;12.20
74364;DHT22;62797;49.740;10.154;2024-02-28T14:30:38;18.10;9.70
74364;DHT22;62797;49.740;10.154;2024-02-28T14:33:14;18.20;10.50
74364;DHT22;62797;49.740;10.154;2024-02-28T14:36:04;18.30;9.20
74364;DHT22;62797;49.740;10.154;2024-02-28T14:38:59;18.50;10.50
74364;DHT22;62797;49.740;10.154;2024-02-28T14:41:37;18.80;10.30
74364;DHT22;62797;49.740;10.154;2024-02-28T14:44:16;18.40;8.40
74364;DHT22;62797;49.740;10.154;2024-02-28T14:47:19;17.60;9.80
74364;DHT22;62797;49.740;10.154;2024-02-28T14:49:58;17.60;9.30
74364;DHT22;62797;49.740;10.154;2024-02-28T14:52:43;18.70;8.00
74364;DHT22;62797;49.740;10.154;2024-02-28T14:55:22;19.00;6.80
74364;DHT22;62797;49.740;10.154;2024-02-28T14:57:55;19.40;7.60
74364;DHT22;62797;49.740;10.154;2024-02-28T15:00:34;19.90;7.10
74364;DHT22;62797;49.740;10.154;2024-02-28T15:03:17;19.80;7.20
74364;DHT22;62797;49.740;10.154;2024-02-28T15:05:52;19.60;6.60
74364;DHT22;62797;49.740;10.154;2024-02-28T15:08:25;20.00;6.00
74364;DHT22;62797;49.740;10.154;2024-02-28T15:11:05;19.70;7.80
74364;DHT22;62797;49.740;10.154;2024-02-28T15:13:42;19.40;6.00
74364;DHT22;62797;49.740;10.154;2024-02-28T15:16:40;19.40;7.20
74364;DHT22;62797;49.740;10.154;2024-02-28T15:19:15;19.50;6.40
74364;DHT22;62797;49.740;10.154;2024-02-28T15:21:49;19.00;4.90
74364;DHT22;62797;49.740;10.154;2024-02-28T15:24:23;18.70;7.00
74364;DHT22;62797;49.740;10.154;2024-02-28T15:27:03;19.10;5.60
74364;DHT22;62797;49.740;10.154;2024-02-28T15:29:37;18.80;4.60
74364;DHT22;62797;49.740;10.154;2024-02-28T15:32:16;19.00;5.40
74364;DHT22;62797;49.740;10.154;2024-02-28T15:34:57;19.00;5.80
74364;DHT22;62797;49.740;10.154;2024-02-28T15:37:38;19.20;6.40
74364;DHT22;62797;49.740;10.154;2024-02-28T15:40:16;19.40;6.20
74364;DHT22;62797;49.740;10.154;2024-02-28T15:43:10;19.30;5.20
74364;DHT22;62797;49.740;10.154;2024-02-28T15:46:01;18.70;6.00
74364;DHT22;62797;49.740;10.154;2024-02-28T15:48:40;18.40;4.30
74364;DHT22;62797;49.740;10.154;2024-02-28T15:51:27;18.20;6.50
74364;DHT22;62797;49.740;10.154;2024-02-28T15:57:27;17.80;5.50
74364;DHT22;62797;49.740;10.154;2024-02-28T16:00:21;17.20;6.10
74364;DHT22;62797;49.740;10.154;2024-02-28T16:02:58;16.90;7.90
74364;DHT22;62797;49.740;10.154;2024-02-28T16:05:42;16.70;9.00
74364;DHT22;62797;49.740;10.154;2024-02-28T16:08:21;16.60;8.70
74364;DHT22;62797;49.740;10.154;2024-02-28T16:11:08;16.20;9.30
74364;DHT22;62797;49.740;10.154;2024-02-28T16:17:20;15.40;11.50
74364;DHT22;62797;49.740;10.154;2024-02-28T16:20:38;14.60;11.40
74364;DHT22;62797;49.740;10.154;2024-02-28T16:23:26;13.80;13.10
74364;DHT22;62797;49.740;10.154;2024-02-28T16:29:33;12.30;15.40
74364;DHT22;62797;49.740;10.154;2024-02-28T16:32:11;11.80;16.20
74364;DHT22;62797;49.740;10.154;2024-02-28T16:34:53;11.40;16.60
74364;DHT22;62797;49.740;10.154;2024-02-28T16:37:27;11.00;18.10
74364;DHT22;62797;49.740;10.154;2024-02-28T16:40:20;10.90;16.90
74364;DHT22;62797;49.740;10.154;2024-02-28T16:43:17;11.00;16.50
74364;DHT22;62797;49.740;10.154;2024-02-28T16:45:56;10.60;19.30
74364;DHT22;62797;49.740;10.154;2024-02-28T16:48:35;10.30;20.80
74364;DHT22;62797;49.740;10.154;2024-02-28T16:51:28;10.10;19.70
74364;DHT22;62797;49.740;10.154;2024-02-28T16:54:16;9.80;22.30
74364;DHT22;62797;49.740;10.154;2024-02-28T16:57:15;9.50;23.60
74364;DHT22;62797;49.740;10.154;2024-02-28T16:59:48;9.00;25.80
74364;DHT22;62797;49.740;10.154;2024-02-28T17:02:23;8.60;26.30
74364;DHT22;62797;49.740;10.154;2024-02-28T17:05:00;8.40;27.10
74364;DHT22;62797;49.740;10.154;2024-02-28T17:07:57;8.10;28.70
74364;DHT22;62797;49.740;10.154;2024-02-28T17:10:52;7.90;29.70
74364;DHT22;62797;49.740;10.154;2024-02-28T17:13:35;7.70;30.00
74364;DHT22;62797;49.740;10.154;2024-02-28T17:16:23;7.50;31.80
74364;DHT22;62797;49.740;10.154;2024-02-28T17:19:07;7.30;31.40
74364;DHT22;62797;49.740;10.154;2024-02-28T17:21:48;7.10;33.30
74364;DHT22;62797;49.740;10.154;2024-02-28T17:24:28;7.10;31.00
74364;DHT22;62797;49.740;10.154;2024-02-28T17:27:20;7.30;29.80
74364;DHT22;62797;49.740;10.154;2024-02-28T17:29:55;7.50;29.30